sensor_id;sensor_type;location;lat;lon;timestamp;P1;durP1;ratioP1;P2;durP2;ratioP2
5718;SDS011;2884;47.734;9.244;2023-12-22T00:01:44;0.50;;;0.50;;
5718;SDS011;2884;47.734;9.244;2023-12-22T00:04:09;0.60;;;0.60;;
5718;SDS011;2884;47.734;9.244;2023-12-22T00:06:38;3.27;;;0.70;;
5718;SDS011;2884;47.734;9.244;2023-12-22T00:09:03;0.87;;;0.50;;
5718;SDS011;2884;47.734;9.244;2023-12-22T00:11:31;2.30;;;0.60;;
5718;SDS011;2884;47.734;9.244;2023-12-22T00:13:57;0.67;;;0.60;;
5718;SDS011;2884;47.734;9.244;2023-12-22T00:16:26;0.70;;;0.60;;
5718;SDS011;2884;47.734;9.244;2023-12-22T00:18:51;0.53;;;0.53;;
5718;SDS011;2884;47.734;9.244;2023-12-22T00:21:20;2.73;;;0.70;;
5718;SDS011;2884;47.734;9.244;2023-12-22T00:23:45;1.40;;;0.70;;
5718;SDS011;2884;47.734;9.244;2023-12-22T00:26:11;1.03;;;0.93;;
5718;SDS011;2884;47.734;9.244;2023-12-22T00:28:37;2.33;;;0.77;;
5718;SDS011;2884;47.734;9.244;2023-12-22T00:31:03;1.20;;;0.73;;
5718;SDS011;2884;47.734;9.244;2023-12-22T00:33:28;2.70;;;0.60;;
5718;SDS011;2884;47.734;9.244;2023-12-22T00:35:54;0.80;;;0.60;;
5718;SDS011;2884;47.734;9.244;2023-12-22T00:38:19;0.67;;;0.67;;
5718;SDS011;2884;47.734;9.244;2023-12-22T00:40:45;1.63;;;0.80;;
5718;SDS011;2884;47.734;9.244;2023-12-22T00:43:11;0.80;;;0.80;;
5718;SDS011;2884;47.734;9.244;2023-12-22T00:45:36;0.97;;;0.60;;
5718;SDS011;2884;47.734;9.244;2023-12-22T00:48:05;0.87;;;0.70;;
5718;SDS011;2884;47.734;9.244;2023-12-22T00:50:30;1.57;;;0.60;;
5718;SDS011;2884;47.734;9.244;2023-12-22T00:52:59;2.93;;;0.70;;
5718;SDS011;2884;47.734;9.244;2023-12-22T00:55:24;0.50;;;0.50;;
5718;SDS011;2884;47.734;9.244;2023-12-22T00:57:53;0.60;;;0.60;;
5718;SDS011;2884;47.734;9.244;2023-12-22T01:00:19;0.60;;;0.57;;
5718;SDS011;2884;47.734;9.244;2023-12-22T01:02:44;1.03;;;0.60;;
5718;SDS011;2884;47.734;9.244;2023-12-22T01:05:10;2.13;;;1.07;;
5718;SDS011;2884;47.734;9.244;2023-12-22T01:07:36;0.87;;;0.60;;
5718;SDS011;2884;47.734;9.244;2023-12-22T01:10:01;1.97;;;0.87;;
5718;SDS011;2884;47.734;9.244;2023-12-22T01:12:29;3.63;;;0.70;;
5718;SDS011;2884;47.734;9.244;2023-12-22T01:14:55;1.17;;;0.80;;
5718;SDS011;2884;47.734;9.244;2023-12-22T01:17:21;1.53;;;0.70;;
5718;SDS011;2884;47.734;9.244;2023-12-22T01:19:47;1.70;;;0.60;;
5718;SDS011;2884;47.734;9.244;2023-12-22T01:22:13;0.70;;;0.60;;
5718;SDS011;2884;47.734;9.244;2023-12-22T01:24:38;0.60;;;0.60;;
5718;SDS011;2884;47.734;9.244;2023-12-22T01:27:08;2.77;;;0.70;;
5718;SDS011;2884;47.734;9.244;2023-12-22T01:29:34;0.50;;;0.50;;
5718;SDS011;2884;47.734;9.244;2023-12-22T01:32:00;0.60;;;0.60;;
5718;SDS011;2884;47.734;9.244;2023-12-22T01:34:26;3.90;;;0.90;;
5718;SDS011;2884;47.734;9.244;2023-12-22T01:36:51;1.80;;;0.77;;
5718;SDS011;2884;47.734;9.244;2023-12-22T01:39:17;2.03;;;0.60;;
5718;SDS011;2884;47.734;9.244;2023-12-22T01:41:43;2.13;;;0.70;;
5718;SDS011;2884;47.734;9.244;2023-12-22T01:44:08;1.60;;;0.53;;
5718;SDS011;2884;47.734;9.244;2023-12-22T01:46:34;1.60;;;0.53;;
5718;SDS011;2884;47.734;9.244;2023-12-22T01:49:00;0.90;;;0.70;;
5718;SDS011;2884;47.734;9.244;2023-12-22T01:51:27;0.60;;;0.60;;
5718;SDS011;2884;47.734;9.244;2023-12-22T01:53:53;1.67;;;0.80;;
5718;SDS011;2884;47.734;9.244;2023-12-22T01:56:20;1.10;;;0.60;;
5718;SDS011;2884;47.734;9.244;2023-12-22T01:58:45;2.03;;;0.60;;
5718;SDS011;2884;47.734;9.244;2023-12-22T02:01:11;0.57;;;0.50;;
5718;SDS011;2884;47.734;9.244;2023-12-22T02:03:43;0.40;;;0.40;;
5718;SDS011;2884;47.734;9.244;2023-12-22T02:10:02;0.80;;;0.57;;
5718;SDS011;2884;47.734;9.244;2023-12-22T02:12:29;0.70;;;0.50;;
5718;SDS011;2884;47.734;9.244;2023-12-22T02:14:54;0.50;;;0.50;;
5718;SDS011;2884;47.734;9.244;2023-12-22T02:17:26;1.63;;;0.70;;
5718;SDS011;2884;47.734;9.244;2023-12-22T02:19:57;2.23;;;0.90;;
5718;SDS011;2884;47.734;9.244;2023-12-22T02:22:23;1.43;;;0.70;;
5718;SDS011;2884;47.734;9.244;2023-12-22T02:24:49;2.30;;;0.80;;
5718;SDS011;2884;47.734;9.244;2023-12-22T02:27:19;1.90;;;0.57;;
5718;SDS011;2884;47.734;9.244;2023-12-22T02:29:54;0.97;;;0.50;;
5718;SDS011;2884;47.734;9.244;2023-12-22T02:32:42;0.70;;;0.60;;
5718;SDS011;2884;47.734;9.244;2023-12-22T02:35:16;3.03;;;0.60;;
5718;SDS011;2884;47.734;9.244;2023-12-22T02:37:44;1.03;;;0.60;;
5718;SDS011;2884;47.734;9.244;2023-12-22T02:40:11;6.00;;;0.60;;
5718;SDS011;2884;47.734;9.244;2023-12-22T02:42:38;4.33;;;0.83;;
5718;SDS011;2884;47.734;9.244;2023-12-22T02:45:04;0.70;;;0.50;;
5718;SDS011;2884;47.734;9.244;2023-12-22T02:47:31;2.23;;;0.80;;
5718;SDS011;2884;47.734;9.244;2023-12-22T02:49:58;2.80;;;0.93;;
5718;SDS011;2884;47.734;9.244;2023-12-22T02:52:24;2.77;;;0.80;;
5718;SDS011;2884;47.734;9.244;2023-12-22T02:54:50;2.63;;;0.90;;
5718;SDS011;2884;47.734;9.244;2023-12-22T02:57:15;3.87;;;0.60;;
5718;SDS011;2884;47.734;9.244;2023-12-22T02:59:41;0.63;;;0.50;;
5718;SDS011;2884;47.734;9.244;2023-12-22T03:02:07;0.73;;;0.70;;
5718;SDS011;2884;47.734;9.244;2023-12-22T03:04:32;1.63;;;0.80;;
5718;SDS011;2884;47.734;9.244;2023-12-22T03:06:58;2.63;;;0.80;;
5718;SDS011;2884;47.734;9.244;2023-12-22T03:09:23;0.60;;;0.60;;
5718;SDS011;2884;47.734;9.244;2023-12-22T03:11:49;1.53;;;0.63;;
5718;SDS011;2884;47.734;9.244;2023-12-22T03:14:17;0.80;;;0.80;;
5718;SDS011;2884;47.734;9.244;2023-12-22T03:16:42;1.43;;;0.87;;
5718;SDS011;2884;47.734;9.244;2023-12-22T03:19:08;0.57;;;0.50;;
5718;SDS011;2884;47.734;9.244;2023-12-22T03:21:33;2.10;;;0.70;;
5718;SDS011;2884;47.734;9.244;2023-12-22T03:23:59;4.13;;;0.93;;
5718;SDS011;2884;47.734;9.244;2023-12-22T03:26:26;1.90;;;0.70;;
5718;SDS011;2884;47.734;9.244;2023-12-22T03:28:52;1.20;;;0.60;;
5718;SDS011;2884;47.734;9.244;2023-12-22T03:31:18;3.20;;;0.80;;
5718;SDS011;2884;47.734;9.244;2023-12-22T03:33:44;1.37;;;0.60;;
5718;SDS011;2884;47.734;9.244;2023-12-22T03:36:09;1.50;;;0.70;;
5718;SDS011;2884;47.734;9.244;2023-12-22T03:38:35;1.30;;;0.77;;
5718;SDS011;2884;47.734;9.244;2023-12-22T03:41:00;0.70;;;0.70;;
5718;SDS011;2884;47.734;9.244;2023-12-22T03:43:26;0.80;;;0.77;;
5718;SDS011;2884;47.734;9.244;2023-12-22T03:45:52;1.83;;;0.70;;
5718;SDS011;2884;47.734;9.244;2023-12-22T03:48:17;1.13;;;0.53;;
5718;SDS011;2884;47.734;9.244;2023-12-22T03:50:43;1.03;;;0.50;;
5718;SDS011;2884;47.734;9.244;2023-12-22T03:53:08;1.13;;;1.03;;
5718;SDS011;2884;47.734;9.244;2023-12-22T03:55:34;2.33;;;0.70;;
5718;SDS011;2884;47.734;9.244;2023-12-22T03:57:59;1.10;;;0.70;;
5718;SDS011;2884;47.734;9.244;2023-12-22T04:00:25;1.23;;;0.60;;
5718;SDS011;2884;47.734;9.244;2023-12-22T04:02:50;3.60;;;0.80;;
5718;SDS011;2884;47.734;9.244;2023-12-22T04:05:16;0.60;;;0.60;;
5718;SDS011;2884;47.734;9.244;2023-12-22T04:07:42;1.30;;;0.57;;
5718;SDS011;2884;47.734;9.244;2023-12-22T04:10:07;1.97;;;0.70;;
5718;SDS011;2884;47.734;9.244;2023-12-22T04:12:33;1.63;;;0.53;;
5718;SDS011;2884;47.734;9.244;2023-12-22T04:14:59;1.43;;;0.77;;
5718;SDS011;2884;47.734;9.244;2023-12-22T04:17:24;1.70;;;0.90;;
5718;SDS011;2884;47.734;9.244;2023-12-22T04:19:50;1.27;;;0.90;;
5718;SDS011;2884;47.734;9.244;2023-12-22T04:22:15;1.60;;;0.60;;
5718;SDS011;2884;47.734;9.244;2023-12-22T04:24:41;3.20;;;0.83;;
5718;SDS011;2884;47.734;9.244;2023-12-22T04:27:07;2.33;;;0.70;;
5718;SDS011;2884;47.734;9.244;2023-12-22T04:29:32;2.00;;;0.77;;
5718;SDS011;2884;47.734;9.244;2023-12-22T04:31:58;4.70;;;0.90;;
5718;SDS011;2884;47.734;9.244;2023-12-22T04:34:26;1.73;;;0.80;;
5718;SDS011;2884;47.734;9.244;2023-12-22T04:36:51;1.60;;;0.80;;
5718;SDS011;2884;47.734;9.244;2023-12-22T04:39:17;2.43;;;0.80;;
5718;SDS011;2884;47.734;9.244;2023-12-22T04:41:42;3.90;;;0.60;;
5718;SDS011;2884;47.734;9.244;2023-12-22T04:44:08;2.00;;;0.60;;
5718;SDS011;2884;47.734;9.244;2023-12-22T04:46:33;2.27;;;0.73;;
5718;SDS011;2884;47.734;9.244;2023-12-22T04:48:59;2.27;;;0.70;;
5718;SDS011;2884;47.734;9.244;2023-12-22T04:51:25;4.30;;;0.73;;
5718;SDS011;2884;47.734;9.244;2023-12-22T04:53:50;1.90;;;0.63;;
5718;SDS011;2884;47.734;9.244;2023-12-22T04:56:16;1.70;;;1.00;;
5718;SDS011;2884;47.734;9.244;2023-12-22T04:58:41;2.20;;;1.00;;
5718;SDS011;2884;47.734;9.244;2023-12-22T05:01:10;2.83;;;0.60;;
5718;SDS011;2884;47.734;9.244;2023-12-22T05:03:36;1.37;;;1.03;;
5718;SDS011;2884;47.734;9.244;2023-12-22T05:06:01;1.00;;;0.60;;
5718;SDS011;2884;47.734;9.244;2023-12-22T05:08:27;2.70;;;0.77;;
5718;SDS011;2884;47.734;9.244;2023-12-22T05:10:52;1.80;;;0.80;;
5718;SDS011;2884;47.734;9.244;2023-12-22T05:13:18;0.60;;;0.60;;
5718;SDS011;2884;47.734;9.244;2023-12-22T05:15:44;1.80;;;0.80;;
5718;SDS011;2884;47.734;9.244;2023-12-22T05:18:10;0.60;;;0.60;;
5718;SDS011;2884;47.734;9.244;2023-12-22T05:20:36;1.00;;;0.73;;
5718;SDS011;2884;47.734;9.244;2023-12-22T05:23:01;3.80;;;0.90;;
5718;SDS011;2884;47.734;9.244;2023-12-22T05:25:27;1.47;;;0.90;;
5718;SDS011;2884;47.734;9.244;2023-12-22T05:27:54;0.80;;;0.60;;
5718;SDS011;2884;47.734;9.244;2023-12-22T05:30:19;3.30;;;0.70;;
5718;SDS011;2884;47.734;9.244;2023-12-22T05:32:45;3.60;;;0.50;;
5718;SDS011;2884;47.734;9.244;2023-12-22T05:35:11;4.97;;;0.77;;
5718;SDS011;2884;47.734;9.244;2023-12-22T05:37:36;1.20;;;0.60;;
5718;SDS011;2884;47.734;9.244;2023-12-22T05:40:02;1.03;;;0.67;;
5718;SDS011;2884;47.734;9.244;2023-12-22T05:42:28;1.97;;;0.70;;
5718;SDS011;2884;47.734;9.244;2023-12-22T05:44:54;0.70;;;0.60;;
5718;SDS011;2884;47.734;9.244;2023-12-22T05:47:19;2.70;;;0.70;;
5718;SDS011;2884;47.734;9.244;2023-12-22T05:49:45;1.13;;;0.40;;
5718;SDS011;2884;47.734;9.244;2023-12-22T05:52:11;1.00;;;0.90;;
5718;SDS011;2884;47.734;9.244;2023-12-22T05:54:37;4.07;;;0.73;;
5718;SDS011;2884;47.734;9.244;2023-12-22T05:57:03;1.20;;;0.80;;
5718;SDS011;2884;47.734;9.244;2023-12-22T05:59:31;1.80;;;0.70;;
5718;SDS011;2884;47.734;9.244;2023-12-22T06:01:57;0.83;;;0.60;;
5718;SDS011;2884;47.734;9.244;2023-12-22T06:04:26;7.50;;;0.73;;
5718;SDS011;2884;47.734;9.244;2023-12-22T06:06:52;4.67;;;0.70;;
5718;SDS011;2884;47.734;9.244;2023-12-22T06:09:17;2.20;;;0.60;;
5718;SDS011;2884;47.734;9.244;2023-12-22T06:11:45;2.40;;;0.70;;
5718;SDS011;2884;47.734;9.244;2023-12-22T06:14:11;0.70;;;0.53;;
5718;SDS011;2884;47.734;9.244;2023-12-22T06:16:36;2.67;;;0.67;;
5718;SDS011;2884;47.734;9.244;2023-12-22T06:19:02;0.67;;;0.67;;
5718;SDS011;2884;47.734;9.244;2023-12-22T06:21:28;1.07;;;0.60;;
5718;SDS011;2884;47.734;9.244;2023-12-22T06:23:54;6.43;;;0.87;;
5718;SDS011;2884;47.734;9.244;2023-12-22T06:26:19;2.87;;;1.33;;
5718;SDS011;2884;47.734;9.244;2023-12-22T06:28:45;3.70;;;1.00;;
5718;SDS011;2884;47.734;9.244;2023-12-22T06:31:17;5.93;;;1.07;;
5718;SDS011;2884;47.734;9.244;2023-12-22T06:33:44;2.23;;;1.13;;
5718;SDS011;2884;47.734;9.244;2023-12-22T06:36:22;2.10;;;0.90;;
5718;SDS011;2884;47.734;9.244;2023-12-22T06:38:49;3.60;;;1.20;;
5718;SDS011;2884;47.734;9.244;2023-12-22T06:41:22;7.70;;;1.63;;
5718;SDS011;2884;47.734;9.244;2023-12-22T06:43:51;8.20;;;1.17;;
5718;SDS011;2884;47.734;9.244;2023-12-22T06:46:17;3.03;;;1.17;;
5718;SDS011;2884;47.734;9.244;2023-12-22T06:48:44;6.97;;;1.57;;
5718;SDS011;2884;47.734;9.244;2023-12-22T06:51:23;3.10;;;1.17;;
5718;SDS011;2884;47.734;9.244;2023-12-22T06:53:49;13.90;;;1.73;;
5718;SDS011;2884;47.734;9.244;2023-12-22T06:56:19;7.63;;;1.93;;
5718;SDS011;2884;47.734;9.244;2023-12-22T06:58:46;5.03;;;1.43;;
5718;SDS011;2884;47.734;9.244;2023-12-22T07:01:20;2.93;;;1.23;;
5718;SDS011;2884;47.734;9.244;2023-12-22T07:03:47;4.17;;;1.20;;
5718;SDS011;2884;47.734;9.244;2023-12-22T07:06:14;4.03;;;1.30;;
5718;SDS011;2884;47.734;9.244;2023-12-22T07:11:39;6.10;;;1.43;;
5718;SDS011;2884;47.734;9.244;2023-12-22T07:14:06;7.30;;;1.50;;
5718;SDS011;2884;47.734;9.244;2023-12-22T07:16:32;4.03;;;1.67;;
5718;SDS011;2884;47.734;9.244;2023-12-22T07:18:57;11.07;;;1.67;;
5718;SDS011;2884;47.734;9.244;2023-12-22T07:21:24;6.90;;;1.77;;
5718;SDS011;2884;47.734;9.244;2023-12-22T07:23:50;7.70;;;1.70;;
5718;SDS011;2884;47.734;9.244;2023-12-22T07:26:16;3.83;;;1.30;;
5718;SDS011;2884;47.734;9.244;2023-12-22T07:28:43;4.63;;;1.50;;
5718;SDS011;2884;47.734;9.244;2023-12-22T07:31:09;1.70;;;1.10;;
5718;SDS011;2884;47.734;9.244;2023-12-22T07:33:34;7.20;;;1.60;;
5718;SDS011;2884;47.734;9.244;2023-12-22T07:36:00;5.87;;;1.43;;
5718;SDS011;2884;47.734;9.244;2023-12-22T07:38:26;6.10;;;1.03;;
5718;SDS011;2884;47.734;9.244;2023-12-22T07:40:52;4.43;;;1.50;;
5718;SDS011;2884;47.734;9.244;2023-12-22T07:43:17;4.67;;;0.90;;
5718;SDS011;2884;47.734;9.244;2023-12-22T07:45:43;5.97;;;1.17;;
5718;SDS011;2884;47.734;9.244;2023-12-22T07:48:08;2.37;;;0.90;;
5718;SDS011;2884;47.734;9.244;2023-12-22T07:50:34;6.57;;;2.03;;
5718;SDS011;2884;47.734;9.244;2023-12-22T07:53:00;2.70;;;1.40;;
5718;SDS011;2884;47.734;9.244;2023-12-22T07:55:25;4.00;;;1.10;;
5718;SDS011;2884;47.734;9.244;2023-12-22T07:57:51;3.17;;;1.20;;
5718;SDS011;2884;47.734;9.244;2023-12-22T08:00:17;2.47;;;0.97;;
5718;SDS011;2884;47.734;9.244;2023-12-22T08:02:43;3.37;;;1.03;;
5718;SDS011;2884;47.734;9.244;2023-12-22T08:05:08;7.17;;;1.10;;
5718;SDS011;2884;47.734;9.244;2023-12-22T08:07:34;3.53;;;0.90;;
5718;SDS011;2884;47.734;9.244;2023-12-22T08:10:00;3.83;;;0.90;;
5718;SDS011;2884;47.734;9.244;2023-12-22T08:12:27;7.37;;;1.30;;
5718;SDS011;2884;47.734;9.244;2023-12-22T08:14:53;6.13;;;1.50;;
5718;SDS011;2884;47.734;9.244;2023-12-22T08:17:19;6.20;;;1.53;;
5718;SDS011;2884;47.734;9.244;2023-12-22T08:19:45;8.33;;;1.27;;
5718;SDS011;2884;47.734;9.244;2023-12-22T08:22:10;6.23;;;1.43;;
5718;SDS011;2884;47.734;9.244;2023-12-22T08:24:38;5.17;;;1.90;;
5718;SDS011;2884;47.734;9.244;2023-12-22T08:27:05;4.63;;;1.23;;
5718;SDS011;2884;47.734;9.244;2023-12-22T08:29:31;9.40;;;1.30;;
5718;SDS011;2884;47.734;9.244;2023-12-22T08:31:57;5.17;;;1.30;;
5718;SDS011;2884;47.734;9.244;2023-12-22T08:34:23;5.93;;;1.40;;
5718;SDS011;2884;47.734;9.244;2023-12-22T08:36:49;8.50;;;1.73;;
5718;SDS011;2884;47.734;9.244;2023-12-22T08:39:14;4.83;;;1.20;;
5718;SDS011;2884;47.734;9.244;2023-12-22T08:41:40;3.53;;;1.33;;
5718;SDS011;2884;47.734;9.244;2023-12-22T08:44:06;2.33;;;1.00;;
5718;SDS011;2884;47.734;9.244;2023-12-22T08:46:32;4.33;;;1.37;;
5718;SDS011;2884;47.734;9.244;2023-12-22T08:48:58;5.57;;;1.80;;
5718;SDS011;2884;47.734;9.244;2023-12-22T08:51:25;7.67;;;1.70;;
5718;SDS011;2884;47.734;9.244;2023-12-22T08:53:51;8.00;;;1.53;;
5718;SDS011;2884;47.734;9.244;2023-12-22T08:56:17;5.97;;;1.70;;
5718;SDS011;2884;47.734;9.244;2023-12-22T08:58:43;4.50;;;1.80;;
5718;SDS011;2884;47.734;9.244;2023-12-22T09:01:15;8.83;;;2.20;;
5718;SDS011;2884;47.734;9.244;2023-12-22T09:03:41;8.23;;;1.90;;
5718;SDS011;2884;47.734;9.244;2023-12-22T09:06:11;7.03;;;1.67;;
5718;SDS011;2884;47.734;9.244;2023-12-22T09:08:40;6.90;;;1.60;;
5718;SDS011;2884;47.734;9.244;2023-12-22T09:11:06;3.70;;;1.20;;
5718;SDS011;2884;47.734;9.244;2023-12-22T09:13:31;5.97;;;1.40;;
5718;SDS011;2884;47.734;9.244;2023-12-22T09:15:57;4.77;;;1.50;;
5718;SDS011;2884;47.734;9.244;2023-12-22T09:18:23;11.00;;;1.60;;
5718;SDS011;2884;47.734;9.244;2023-12-22T09:20:49;4.03;;;1.13;;
5718;SDS011;2884;47.734;9.244;2023-12-22T09:23:14;7.77;;;1.70;;
5718;SDS011;2884;47.734;9.244;2023-12-22T09:25:40;9.27;;;1.50;;
5718;SDS011;2884;47.734;9.244;2023-12-22T09:28:05;5.80;;;1.77;;
5718;SDS011;2884;47.734;9.244;2023-12-22T09:30:31;7.53;;;1.77;;
5718;SDS011;2884;47.734;9.244;2023-12-22T09:32:57;5.47;;;1.87;;
5718;SDS011;2884;47.734;9.244;2023-12-22T09:35:23;7.70;;;1.70;;
5718;SDS011;2884;47.734;9.244;2023-12-22T09:37:50;11.97;;;1.70;;
5718;SDS011;2884;47.734;9.244;2023-12-22T09:40:16;2.10;;;1.17;;
5718;SDS011;2884;47.734;9.244;2023-12-22T09:42:41;3.50;;;1.20;;
5718;SDS011;2884;47.734;9.244;2023-12-22T09:45:10;8.03;;;1.53;;
5718;SDS011;2884;47.734;9.244;2023-12-22T09:47:38;4.70;;;1.20;;
5718;SDS011;2884;47.734;9.244;2023-12-22T09:50:05;11.33;;;1.37;;
5718;SDS011;2884;47.734;9.244;2023-12-22T09:52:32;8.97;;;2.03;;
5718;SDS011;2884;47.734;9.244;2023-12-22T09:55:01;4.80;;;1.30;;
5718;SDS011;2884;47.734;9.244;2023-12-22T09:57:27;11.30;;;2.10;;
5718;SDS011;2884;47.734;9.244;2023-12-22T09:59:53;6.40;;;1.83;;
5718;SDS011;2884;47.734;9.244;2023-12-22T10:02:19;9.20;;;1.63;;
5718;SDS011;2884;47.734;9.244;2023-12-22T10:04:45;7.17;;;1.90;;
5718;SDS011;2884;47.734;9.244;2023-12-22T10:07:11;8.17;;;1.57;;
5718;SDS011;2884;47.734;9.244;2023-12-22T10:09:40;12.17;;;2.63;;
5718;SDS011;2884;47.734;9.244;2023-12-22T10:12:06;4.63;;;2.00;;
5718;SDS011;2884;47.734;9.244;2023-12-22T10:14:32;11.67;;;2.17;;
5718;SDS011;2884;47.734;9.244;2023-12-22T10:17:01;7.23;;;1.63;;
5718;SDS011;2884;47.734;9.244;2023-12-22T10:19:26;8.57;;;1.90;;
5718;SDS011;2884;47.734;9.244;2023-12-22T10:21:52;6.53;;;1.67;;
5718;SDS011;2884;47.734;9.244;2023-12-22T10:27:05;6.53;;;1.73;;
5718;SDS011;2884;47.734;9.244;2023-12-22T10:29:31;8.43;;;1.70;;
5718;SDS011;2884;47.734;9.244;2023-12-22T10:31:58;11.17;;;2.50;;
5718;SDS011;2884;47.734;9.244;2023-12-22T10:34:24;7.13;;;2.00;;
5718;SDS011;2884;47.734;9.244;2023-12-22T10:36:50;9.33;;;1.83;;
5718;SDS011;2884;47.734;9.244;2023-12-22T10:39:15;8.40;;;1.60;;
5718;SDS011;2884;47.734;9.244;2023-12-22T10:41:41;5.03;;;1.93;;
5718;SDS011;2884;47.734;9.244;2023-12-22T10:44:07;10.33;;;2.17;;
5718;SDS011;2884;47.734;9.244;2023-12-22T10:46:33;6.40;;;1.70;;
5718;SDS011;2884;47.734;9.244;2023-12-22T10:48:59;6.60;;;1.57;;
5718;SDS011;2884;47.734;9.244;2023-12-22T10:51:25;13.87;;;2.03;;
5718;SDS011;2884;47.734;9.244;2023-12-22T10:53:51;8.60;;;1.97;;
5718;SDS011;2884;47.734;9.244;2023-12-22T10:56:17;5.93;;;1.87;;
5718;SDS011;2884;47.734;9.244;2023-12-22T10:58:43;14.70;;;2.60;;
5718;SDS011;2884;47.734;9.244;2023-12-22T11:01:11;6.90;;;1.57;;
5718;SDS011;2884;47.734;9.244;2023-12-22T11:03:39;4.57;;;1.47;;
5718;SDS011;2884;47.734;9.244;2023-12-22T11:06:10;6.57;;;1.33;;
5718;SDS011;2884;47.734;9.244;2023-12-22T11:08:36;6.73;;;1.40;;
5718;SDS011;2884;47.734;9.244;2023-12-22T11:11:02;16.63;;;3.27;;
5718;SDS011;2884;47.734;9.244;2023-12-22T11:13:40;7.97;;;1.90;;
5718;SDS011;2884;47.734;9.244;2023-12-22T11:16:05;4.17;;;1.30;;
5718;SDS011;2884;47.734;9.244;2023-12-22T11:18:31;5.17;;;1.40;;
5718;SDS011;2884;47.734;9.244;2023-12-22T11:20:57;5.23;;;1.33;;
5718;SDS011;2884;47.734;9.244;2023-12-22T11:23:24;5.63;;;1.53;;
5718;SDS011;2884;47.734;9.244;2023-12-22T11:25:50;3.43;;;1.27;;
5718;SDS011;2884;47.734;9.244;2023-12-22T11:28:17;9.90;;;1.90;;
5718;SDS011;2884;47.734;9.244;2023-12-22T11:30:43;6.23;;;2.00;;
5718;SDS011;2884;47.734;9.244;2023-12-22T11:33:09;5.53;;;1.40;;
5718;SDS011;2884;47.734;9.244;2023-12-22T11:35:35;7.73;;;1.80;;
5718;SDS011;2884;47.734;9.244;2023-12-22T11:38:02;5.23;;;1.27;;
5718;SDS011;2884;47.734;9.244;2023-12-22T11:40:30;2.77;;;1.17;;
5718;SDS011;2884;47.734;9.244;2023-12-22T11:42:56;13.73;;;1.50;;
5718;SDS011;2884;47.734;9.244;2023-12-22T11:45:22;2.47;;;0.80;;
5718;SDS011;2884;47.734;9.244;2023-12-22T11:47:49;7.80;;;1.20;;
5718;SDS011;2884;47.734;9.244;2023-12-22T11:50:48;8.43;;;1.13;;
5718;SDS011;2884;47.734;9.244;2023-12-22T11:53:23;4.20;;;1.17;;
5718;SDS011;2884;47.734;9.244;2023-12-22T11:58:36;4.47;;;1.10;;
5718;SDS011;2884;47.734;9.244;2023-12-22T12:01:10;3.33;;;1.27;;
5718;SDS011;2884;47.734;9.244;2023-12-22T12:03:37;4.97;;;1.50;;
5718;SDS011;2884;47.734;9.244;2023-12-22T12:08:48;2.93;;;0.90;;
5718;SDS011;2884;47.734;9.244;2023-12-22T12:11:14;4.50;;;1.10;;
5718;SDS011;2884;47.734;9.244;2023-12-22T12:13:43;4.00;;;1.03;;
5718;SDS011;2884;47.734;9.244;2023-12-22T12:16:10;5.80;;;0.90;;
5718;SDS011;2884;47.734;9.244;2023-12-22T12:18:40;4.53;;;1.47;;
5718;SDS011;2884;47.734;9.244;2023-12-22T12:21:08;4.47;;;1.10;;
5718;SDS011;2884;47.734;9.244;2023-12-22T12:23:35;3.37;;;1.10;;
5718;SDS011;2884;47.734;9.244;2023-12-22T12:26:01;4.20;;;1.10;;
5718;SDS011;2884;47.734;9.244;2023-12-22T12:28:31;2.73;;;0.87;;
5718;SDS011;2884;47.734;9.244;2023-12-22T12:30:57;0.80;;;0.80;;
5718;SDS011;2884;47.734;9.244;2023-12-22T12:33:28;2.30;;;1.40;;
5718;SDS011;2884;47.734;9.244;2023-12-22T12:35:57;2.10;;;1.07;;
5718;SDS011;2884;47.734;9.244;2023-12-22T12:39:09;1.80;;;1.50;;
5718;SDS011;2884;47.734;9.244;2023-12-22T12:41:32;4.17;;;1.10;;
5718;SDS011;2884;47.734;9.244;2023-12-22T12:44:02;2.23;;;1.17;;
5718;SDS011;2884;47.734;9.244;2023-12-22T12:46:35;1.53;;;0.70;;
5718;SDS011;2884;47.734;9.244;2023-12-22T12:49:04;1.63;;;0.60;;
5718;SDS011;2884;47.734;9.244;2023-12-22T12:51:31;2.43;;;0.70;;
5718;SDS011;2884;47.734;9.244;2023-12-22T12:54:04;1.30;;;0.80;;
5718;SDS011;2884;47.734;9.244;2023-12-22T12:56:36;1.20;;;0.83;;
5718;SDS011;2884;47.734;9.244;2023-12-22T12:59:11;0.97;;;0.77;;
5718;SDS011;2884;47.734;9.244;2023-12-22T13:04:05;1.70;;;0.73;;
5718;SDS011;2884;47.734;9.244;2023-12-22T13:06:30;0.50;;;0.50;;
5718;SDS011;2884;47.734;9.244;2023-12-22T13:08:56;0.93;;;0.77;;
5718;SDS011;2884;47.734;9.244;2023-12-22T13:11:22;0.50;;;0.50;;
5718;SDS011;2884;47.734;9.244;2023-12-22T13:13:48;0.50;;;0.50;;
5718;SDS011;2884;47.734;9.244;2023-12-22T13:16:16;0.53;;;0.53;;
5718;SDS011;2884;47.734;9.244;2023-12-22T13:18:43;1.10;;;0.70;;
5718;SDS011;2884;47.734;9.244;2023-12-22T13:21:09;4.10;;;0.60;;
5718;SDS011;2884;47.734;9.244;2023-12-22T13:23:34;0.50;;;0.50;;
5718;SDS011;2884;47.734;9.244;2023-12-22T13:26:00;0.50;;;0.50;;
5718;SDS011;2884;47.734;9.244;2023-12-22T13:28:26;0.60;;;0.60;;
5718;SDS011;2884;47.734;9.244;2023-12-22T13:30:55;1.73;;;0.50;;
5718;SDS011;2884;47.734;9.244;2023-12-22T13:33:21;0.40;;;0.40;;
5718;SDS011;2884;47.734;9.244;2023-12-22T13:35:47;1.13;;;0.60;;
5718;SDS011;2884;47.734;9.244;2023-12-22T13:38:13;0.57;;;0.57;;
5718;SDS011;2884;47.734;9.244;2023-12-22T13:40:44;0.60;;;0.60;;
5718;SDS011;2884;47.734;9.244;2023-12-22T13:43:10;0.40;;;0.40;;
5718;SDS011;2884;47.734;9.244;2023-12-22T13:45:35;0.50;;;0.40;;
5718;SDS011;2884;47.734;9.244;2023-12-22T13:48:01;0.47;;;0.43;;
5718;SDS011;2884;47.734;9.244;2023-12-22T13:50:27;1.03;;;0.50;;
5718;SDS011;2884;47.734;9.244;2023-12-22T13:52:52;0.83;;;0.50;;
5718;SDS011;2884;47.734;9.244;2023-12-22T13:55:19;1.27;;;0.50;;
5718;SDS011;2884;47.734;9.244;2023-12-22T13:57:48;0.47;;;0.47;;
5718;SDS011;2884;47.734;9.244;2023-12-22T14:02:45;0.40;;;0.40;;
5718;SDS011;2884;47.734;9.244;2023-12-22T14:05:11;0.80;;;0.50;;
5718;SDS011;2884;47.734;9.244;2023-12-22T14:07:37;0.40;;;0.40;;
5718;SDS011;2884;47.734;9.244;2023-12-22T14:10:06;0.63;;;0.40;;
5718;SDS011;2884;47.734;9.244;2023-12-22T14:12:32;1.03;;;0.50;;
5718;SDS011;2884;47.734;9.244;2023-12-22T14:14:57;0.40;;;0.40;;
5718;SDS011;2884;47.734;9.244;2023-12-22T14:17:23;0.60;;;0.60;;
5718;SDS011;2884;47.734;9.244;2023-12-22T14:19:48;0.50;;;0.50;;
5718;SDS011;2884;47.734;9.244;2023-12-22T14:22:14;1.03;;;0.63;;
5718;SDS011;2884;47.734;9.244;2023-12-22T14:24:40;2.23;;;0.50;;
5718;SDS011;2884;47.734;9.244;2023-12-22T14:27:06;0.40;;;0.40;;
5718;SDS011;2884;47.734;9.244;2023-12-22T14:29:31;0.40;;;0.40;;
5718;SDS011;2884;47.734;9.244;2023-12-22T14:31:58;0.50;;;0.50;;
5718;SDS011;2884;47.734;9.244;2023-12-22T14:34:24;0.37;;;0.37;;
5718;SDS011;2884;47.734;9.244;2023-12-22T14:36:49;0.40;;;0.40;;
5718;SDS011;2884;47.734;9.244;2023-12-22T14:39:15;0.50;;;0.50;;
5718;SDS011;2884;47.734;9.244;2023-12-22T14:41:44;0.50;;;0.50;;
5718;SDS011;2884;47.734;9.244;2023-12-22T14:44:09;0.40;;;0.40;;
5718;SDS011;2884;47.734;9.244;2023-12-22T14:46:38;0.50;;;0.50;;
5718;SDS011;2884;47.734;9.244;2023-12-22T14:49:05;0.40;;;0.40;;
5718;SDS011;2884;47.734;9.244;2023-12-22T14:51:37;1.23;;;0.40;;
5718;SDS011;2884;47.734;9.244;2023-12-22T14:54:04;0.40;;;0.40;;
5718;SDS011;2884;47.734;9.244;2023-12-22T14:56:33;0.40;;;0.40;;
5718;SDS011;2884;47.734;9.244;2023-12-22T14:58:59;0.57;;;0.50;;
5718;SDS011;2884;47.734;9.244;2023-12-22T15:01:25;0.47;;;0.40;;
5718;SDS011;2884;47.734;9.244;2023-12-22T15:03:51;0.50;;;0.50;;
5718;SDS011;2884;47.734;9.244;2023-12-22T15:06:16;0.40;;;0.40;;
5718;SDS011;2884;47.734;9.244;2023-12-22T15:08:42;0.40;;;0.40;;
5718;SDS011;2884;47.734;9.244;2023-12-22T15:11:07;0.40;;;0.40;;
5718;SDS011;2884;47.734;9.244;2023-12-22T15:13:33;0.43;;;0.43;;
5718;SDS011;2884;47.734;9.244;2023-12-22T15:16:06;0.43;;;0.40;;
5718;SDS011;2884;47.734;9.244;2023-12-22T15:18:32;0.40;;;0.40;;
5718;SDS011;2884;47.734;9.244;2023-12-22T15:20:58;0.40;;;0.40;;
5718;SDS011;2884;47.734;9.244;2023-12-22T15:23:23;0.47;;;0.47;;
5718;SDS011;2884;47.734;9.244;2023-12-22T15:25:49;0.40;;;0.40;;
5718;SDS011;2884;47.734;9.244;2023-12-22T15:28:14;0.47;;;0.47;;
5718;SDS011;2884;47.734;9.244;2023-12-22T15:30:40;0.40;;;0.40;;
5718;SDS011;2884;47.734;9.244;2023-12-22T15:33:06;0.60;;;0.53;;